Terminal Aerodrome Forecast
Issued by NWS

Home | Current Version | Previous Version | Text Only | Print | Product List | Glossary On
Versions: 1 2 3 4 5 6 7 8 9 10 11 12 13 14 15 16
000
FTUS45 KABQ 262300
TAFSAF
TAF
KSAF 262339Z 2700/2724 23007KT P6SM SCT060
     FM270200 35006KT P6SM SCT050
     FM271200 36009KT P6SM SCT003
     FM271600 36012KT P6SM SCT200
     FM271930 26008KT P6SM SCT200=

USA.gov is the U.S. government's official web portal to all federal, state and local government web resources and services.